createdAt,value
2022-09-27T00:00:33.076Z,66.79
2022-09-27T00:06:09.174Z,67.19
2022-09-27T00:11:33.896Z,67.07
2022-09-27T00:16:54.788Z,67.43
2022-09-27T00:22:15.504Z,67.12
2022-09-27T00:27:36.391Z,67.48
2022-09-27T00:32:57.111Z,67.59
2022-09-27T00:38:18.249Z,67.67
2022-09-27T00:43:52.635Z,67.94
2022-09-27T00:49:45.902Z,67.54
2022-09-27T00:55:16.563Z,67.68
2022-09-27T01:00:42.598Z,67.79
2022-09-27T01:06:06.662Z,68.05
2022-09-27T01:11:49.520Z,67.98
2022-09-27T01:17:39.555Z,68.08
2022-09-27T01:23:10.418Z,68.48
2022-09-27T01:28:52.664Z,68.62
2022-09-27T01:34:25.830Z,68.70
2022-09-27T01:40:08.650Z,68.75
2022-09-27T01:46:08.750Z,68.78
2022-09-27T01:52:00.990Z,69.22
2022-09-27T01:57:28.050Z,68.95
2022-09-27T02:02:57.255Z,69.19
2022-09-27T02:08:52.861Z,68.96
2022-09-27T02:14:50.958Z,68.90
2022-09-27T02:20:31.702Z,69.07
2022-09-27T02:26:37.692Z,68.85
2022-09-27T02:31:58.699Z,69.03
2022-09-27T02:37:19.923Z,69.12
2022-09-27T02:42:44.517Z,69.02
2022-09-27T02:48:13.119Z,69.04
2022-09-27T02:53:52.341Z,69.07
2022-09-27T02:59:54.699Z,68.94
2022-09-27T03:05:30.654Z,69.13
2022-09-27T03:10:51.967Z,69.20
2022-09-27T03:16:13.302Z,68.88
2022-09-27T03:22:06.179Z,68.97
2022-09-27T03:27:27.276Z,69.17
2022-09-27T03:32:47.980Z,69.29
2022-09-27T03:38:29.021Z,68.95
2022-09-27T03:43:49.780Z,69.01
2022-09-27T03:49:13.325Z,68.91
2022-09-27T03:54:34.755Z,68.78
2022-09-27T03:59:56.159Z,68.81
2022-09-27T04:05:35.401Z,68.76
2022-09-27T04:11:07.679Z,68.66
2022-09-27T04:16:28.923Z,68.77
2022-09-27T04:22:15.548Z,68.81
2022-09-27T04:27:37.640Z,68.87
2022-09-27T04:32:58.795Z,68.79
2022-09-27T04:38:42.234Z,68.98
2022-09-27T04:44:05.232Z,69.03
2022-09-27T04:49:25.975Z,68.94
2022-09-27T04:54:47.842Z,68.82
2022-09-27T05:00:09.941Z,69.15
2022-09-27T05:05:31.989Z,69.09
2022-09-27T05:10:52.749Z,69.19
2022-09-27T05:16:13.981Z,69.14
2022-09-27T05:21:54.798Z,69.52
2022-09-27T05:27:20.607Z,69.66
2022-09-27T05:32:44.105Z,69.35
2022-09-27T05:38:19.814Z,69.49
2022-09-27T05:43:43.457Z,69.24
2022-09-27T05:49:06.815Z,69.26
2022-09-27T05:54:29.987Z,69.39
2022-09-27T05:59:52.263Z,69.51
2022-09-27T06:05:16.244Z,69.62
2022-09-27T06:10:38.092Z,69.18
2022-09-27T06:16:00.842Z,69.36
2022-09-27T06:21:23.145Z,70.35
2022-09-27T06:26:49.472Z,69.60
2022-09-27T06:32:29.346Z,69.34
2022-09-27T06:38:11.299Z,69.40
2022-09-27T06:43:38.511Z,69.56
2022-09-27T06:49:00.236Z,69.75
2022-09-27T06:54:20.965Z,69.82
2022-09-27T07:00:00.275Z,69.78
2022-09-27T07:05:44.192Z,69.90
2022-09-27T07:11:23.697Z,69.72
2022-09-27T07:16:46.238Z,69.92
2022-09-27T07:22:07.698Z,71.37
2022-09-27T07:27:29.412Z,69.48
2022-09-27T07:32:50.723Z,69.50
2022-09-27T07:38:16.582Z,69.41
2022-09-27T07:43:37.853Z,69.77
2022-09-27T07:49:00.455Z,69.79
2022-09-27T07:54:48.301Z,69.60
2022-09-27T08:00:19.858Z,69.41
2022-09-27T08:05:45.808Z,69.57
2022-09-27T08:11:15.409Z,69.77
2022-09-27T08:16:37.566Z,69.22
2022-09-27T08:22:26.715Z,69.13
2022-09-27T08:28:04.739Z,69.33
2022-09-27T08:33:39.112Z,69.29
2022-09-27T08:39:02.377Z,69.29
2022-09-27T08:45:02.379Z,69.32
2022-09-27T08:50:30.520Z,69.25
2022-09-27T08:55:58.030Z,69.48
2022-09-27T09:01:27.893Z,69.30
2022-09-27T09:07:09.899Z,69.38
2022-09-27T09:12:56.146Z,68.96
2022-09-27T09:18:50.337Z,69.07
2022-09-27T09:24:32.082Z,68.72
2022-09-27T09:29:59.770Z,68.51
2022-09-27T09:35:27.972Z,68.53
2022-09-27T09:41:11.612Z,68.58
2022-09-27T09:46:45.779Z,68.70
2022-09-27T09:52:15.219Z,68.74
2022-09-27T09:57:42.713Z,68.45
2022-09-27T10:03:09.953Z,67.79
2022-09-27T10:08:31.417Z,68.08
2022-09-27T10:14:18.693Z,68.26
2022-09-27T10:19:39.884Z,68.34
2022-09-27T10:25:08.369Z,68.52
2022-09-27T10:30:57.255Z,68.02
2022-09-27T10:36:32.597Z,67.91
2022-09-27T10:41:53.863Z,68.16
2022-09-27T10:47:32.318Z,67.70
2022-09-27T10:53:19.266Z,67.66
2022-09-27T10:58:48.780Z,67.17
2022-09-27T11:04:33.886Z,67.18
2022-09-27T11:10:03.126Z,66.82
2022-09-27T11:15:31.113Z,67.16
2022-09-27T11:21:13.929Z,66.49
2022-09-27T11:27:02.863Z,66.01
2022-09-27T11:32:42.269Z,66.08
2022-09-27T11:38:40.880Z,66.30
2022-09-27T11:44:13.499Z,66.29
2022-09-27T11:49:59.963Z,66.51
2022-09-27T11:55:33.352Z,66.64
2022-09-27T12:01:17.063Z,66.45
2022-09-27T12:07:04.238Z,66.86
2022-09-27T12:12:35.626Z,66.79
2022-09-27T12:18:17.072Z,67.20
2022-09-27T12:23:43.970Z,67.50
2022-09-27T12:29:36.339Z,68.27
2022-09-27T12:35:05.506Z,68.62
2022-09-27T12:40:34.537Z,68.21
2022-09-27T12:46:34.968Z,68.21
2022-09-27T12:52:01.294Z,68.63
2022-09-27T12:57:29.991Z,68.99
2022-09-27T13:03:29.563Z,69.02
2022-09-27T13:09:11.489Z,68.32
2022-09-27T13:14:42.746Z,68.21
2022-09-27T13:20:31.429Z,67.65
2022-09-27T13:26:03.832Z,67.63
2022-09-27T13:32:10.351Z,67.63
2022-09-27T13:37:59.634Z,67.51
2022-09-27T13:43:59.605Z,67.34
2022-09-27T13:49:43.475Z,66.96
2022-09-27T13:55:47.061Z,66.86
2022-09-27T14:01:42.603Z,66.61
2022-09-27T14:07:05.227Z,66.49
2022-09-27T14:12:35.941Z,66.34
2022-09-27T14:18:00.245Z,65.69
2022-09-27T14:23:27.173Z,65.51
2022-09-27T14:28:50.427Z,65.59
2022-09-27T14:34:24.381Z,65.69
2022-09-27T14:39:59.477Z,65.43
2022-09-27T14:45:39.209Z,65.63
2022-09-27T14:51:14.059Z,65.93
2022-09-27T14:56:38.474Z,65.73
2022-09-27T15:02:05.633Z,65.56
2022-09-27T15:07:27.217Z,65.98
2022-09-27T15:12:57.920Z,66.25
2022-09-27T15:18:40.977Z,66.53
2022-09-27T15:24:03.162Z,67.05
2022-09-27T15:29:25.930Z,66.80
2022-09-27T15:34:46.686Z,67.02
2022-09-27T15:40:45.631Z,66.78
2022-09-27T15:46:27.364Z,66.87
2022-09-27T15:51:54.260Z,66.94
2022-09-27T15:57:15.200Z,66.99
2022-09-27T16:02:37.113Z,67.14
2022-09-27T16:07:59.442Z,67.25
2022-09-27T16:13:20.610Z,67.08
2022-09-27T16:18:41.233Z,67.09
2022-09-27T16:24:06.190Z,67.08
2022-09-27T16:29:30.729Z,70.16
2022-09-27T16:34:51.726Z,67.07
2022-09-27T16:40:15.327Z,67.08
2022-09-27T16:45:36.839Z,67.02
2022-09-27T16:51:22.232Z,66.98
2022-09-27T16:56:43.394Z,66.86
2022-09-27T17:02:05.645Z,66.35
2022-09-27T17:07:28.428Z,67.18
2022-09-27T17:12:49.624Z,66.91
2022-09-27T17:18:12.737Z,66.21
2022-09-27T17:23:34.462Z,66.40
2022-09-27T17:28:57.388Z,66.20
2022-09-27T17:34:18.340Z,66.53
2022-09-27T17:39:41.772Z,66.25
2022-09-27T17:45:03.470Z,66.10
2022-09-27T17:50:30.160Z,66.47
2022-09-27T17:55:51.103Z,66.57
2022-09-27T18:01:12.196Z,66.43
2022-09-27T18:06:44.446Z,66.25
2022-09-27T18:12:05.963Z,66.39
2022-09-27T18:17:28.004Z,65.93
2022-09-27T18:22:48.872Z,66.12
2022-09-27T18:28:09.632Z,66.36
2022-09-27T18:33:31.703Z,66.42
2022-09-27T18:38:58.260Z,66.29
2022-09-27T18:44:20.138Z,66.64
2022-09-27T18:49:41.293Z,66.62
2022-09-27T18:55:02.431Z,66.32
2022-09-27T19:00:23.191Z,66.75
2022-09-27T19:05:43.985Z,66.44
2022-09-27T19:11:08.859Z,66.69
2022-09-27T19:16:30.295Z,66.83
2022-09-27T19:21:51.099Z,67.07
2022-09-27T19:27:14.575Z,66.86
2022-09-27T19:32:35.703Z,66.91
2022-09-27T19:37:56.361Z,66.63
2022-09-27T19:43:17.126Z,66.85
2022-09-27T19:48:38.590Z,66.92
2022-09-27T19:53:59.378Z,67.33
2022-09-27T19:59:20.498Z,66.98
2022-09-27T20:04:41.668Z,66.84
2022-09-27T20:10:03.110Z,66.87
2022-09-27T20:15:23.927Z,67.19
2022-09-27T20:20:44.907Z,66.84
2022-09-27T20:26:10.644Z,66.53
2022-09-27T20:31:34.371Z,66.97
2022-09-27T20:36:55.366Z,66.81
2022-09-27T20:42:16.152Z,66.92
2022-09-27T20:47:38.563Z,66.81
2022-09-27T20:52:59.576Z,66.91
2022-09-27T20:58:20.237Z,66.62
2022-09-27T21:03:44.908Z,66.64
2022-09-27T21:09:07.050Z,66.47
2022-09-27T21:14:27.978Z,67.01
2022-09-27T21:19:48.899Z,67.10
2022-09-27T21:25:09.696Z,66.95
2022-09-27T21:30:31.156Z,66.75
2022-09-27T21:35:51.790Z,67.08
2022-09-27T21:41:14.844Z,66.68
2022-09-27T21:46:41.013Z,66.88
2022-09-27T21:52:02.083Z,66.70
2022-09-27T21:57:23.183Z,67.21
2022-09-27T22:02:44.165Z,67.08
2022-09-27T22:08:05.827Z,67.23
2022-09-27T22:13:28.466Z,66.88
2022-09-27T22:18:52.227Z,67.33
2022-09-27T22:24:15.784Z,67.09
2022-09-27T22:29:36.569Z,66.59
2022-09-27T22:34:57.359Z,67.20
2022-09-27T22:40:18.468Z,67.18
2022-09-27T22:45:39.125Z,66.68
2022-09-27T22:51:00.436Z,67.13
2022-09-27T22:56:21.563Z,66.73
2022-09-27T23:01:42.361Z,66.69
2022-09-27T23:07:03.049Z,66.74
2022-09-27T23:12:23.792Z,66.82
2022-09-27T23:17:50.269Z,66.87
2022-09-27T23:23:13.813Z,66.39
2022-09-27T23:28:35.331Z,66.70
2022-09-27T23:33:57.825Z,67.01
2022-09-27T23:39:18.892Z,67.30
2022-09-27T23:44:40.059Z,66.94
2022-09-27T23:50:02.484Z,67.40
2022-09-27T23:55:23.205Z,67.04
